Time;durP1;ratioP1;P1;durP2;ratioP2;P2;SDS_P1;SDS_P2;PMS_P1;PMS_P2;Temp;Humidity;BMP_temperature;BMP_pressure;BME280_temperature;BME280_humidity;BME280_pressure;Samples;Min_cycle;Max_cycle;Signal;HPM_P1;HPM_P2
2021/09/21 00:01:08;;;;;;;3.63;1.48;;;11.10;99.90;;;;;;4989072;28;20034;-70
2021/09/21 00:03:35;;;;;;;4.00;1.50;;;11.00;99.90;;;;;;4990466;28;20121;-70
2021/09/21 00:06:01;;;;;;;2.78;1.30;;;11.10;99.90;;;;;;4989705;28;20041;-71
2021/09/21 00:08:27;;;;;;;4.97;1.70;;;11.00;99.90;;;;;;4990542;28;20038;-70
2021/09/21 00:10:57;;;;;;;5.00;1.50;;;11.00;99.90;;;;;;4988656;28;20069;-70
2021/09/21 00:13:23;;;;;;;4.07;2.13;;;10.90;99.90;;;;;;4990200;28;20047;-70
2021/09/21 00:15:49;;;;;;;5.95;1.48;;;10.90;99.90;;;;;;4989819;28;20035;-70
2021/09/21 00:18:15;;;;;;;2.97;1.75;;;10.90;99.90;;;;;;4989893;28;20035;-70
2021/09/21 00:20:41;;;;;;;3.00;1.42;;;10.90;99.90;;;;;;4993955;28;20494;-70
2021/09/21 00:23:07;;;;;;;5.22;1.52;;;10.90;99.90;;;;;;4993870;28;20042;-70
2021/09/21 00:25:33;;;;;;;4.00;1.58;;;10.90;99.90;;;;;;4994125;28;20038;-70
2021/09/21 00:27:58;;;;;;;5.78;1.67;;;10.80;99.90;;;;;;4989989;28;20034;-70
2021/09/21 00:30:24;;;;;;;3.88;2.28;;;10.70;99.90;;;;;;4994218;28;20053;-71
2021/09/21 00:33:01;;;;;;;4.07;1.52;;;10.70;99.90;;;;;;4993444;28;20058;-71
2021/09/21 00:35:27;;;;;;;4.25;1.60;;;10.70;99.90;;;;;;4993684;28;20034;-70
2021/09/21 00:37:52;;;;;;;4.78;1.50;;;10.70;99.90;;;;;;4993265;28;20085;-69
2021/09/21 00:40:18;;;;;;;4.65;1.83;;;10.60;99.90;;;;;;4988328;28;20089;-70
2021/09/21 00:42:45;;;;;;;5.82;2.00;;;10.50;99.90;;;;;;4992305;28;20058;-70
2021/09/21 00:45:19;;;;;;;4.80;1.85;;;10.50;99.90;;;;;;4993013;28;20042;-70
2021/09/21 00:47:45;;;;;;;3.90;1.42;;;10.50;99.90;;;;;;4988749;28;20049;-70
2021/09/21 00:50:11;;;;;;;3.22;1.58;;;10.50;99.90;;;;;;4992938;28;20053;-70
2021/09/21 00:52:37;;;;;;;8.27;1.40;;;10.50;99.90;;;;;;4993335;28;20046;-69
2021/09/21 00:55:03;;;;;;;3.33;1.58;;;10.50;99.90;;;;;;4992022;28;20037;-70
2021/09/21 00:57:31;;;;;;;4.25;1.98;;;10.50;99.90;;;;;;4992398;28;20407;-70
2021/09/21 00:59:57;;;;;;;2.95;1.50;;;10.50;99.90;;;;;;4991412;28;20041;-70
2021/09/21 01:02:26;;;;;;;5.53;1.75;;;10.50;99.90;;;;;;4992402;28;20038;-70
2021/09/21 01:04:51;;;;;;;4.35;2.25;;;10.50;99.90;;;;;;4993436;28;20030;-70
2021/09/21 01:07:17;;;;;;;2.72;1.55;;;10.40;99.90;;;;;;4992598;28;20478;-70
2021/09/21 01:09:43;;;;;;;2.72;1.65;;;10.40;99.90;;;;;;4992747;28;20043;-70
2021/09/21 01:12:09;;;;;;;3.30;1.50;;;10.30;99.90;;;;;;4993793;28;20034;-70
2021/09/21 01:14:35;;;;;;;4.57;1.55;;;10.40;99.90;;;;;;4993143;28;20054;-70
2021/09/21 01:17:00;;;;;;;5.57;1.67;;;10.30;99.90;;;;;;4992481;28;20030;-71
2021/09/21 01:19:26;;;;;;;6.20;1.75;;;10.30;99.90;;;;;;4992680;28;20397;-70
2021/09/21 01:21:52;;;;;;;4.53;1.52;;;10.20;99.90;;;;;;4993312;28;20030;-70
2021/09/21 01:24:20;;;;;;;3.25;1.70;;;10.20;99.90;;;;;;4991376;28;20501;-70
2021/09/21 01:26:46;;;;;;;3.80;1.90;;;10.20;99.90;;;;;;4988482;28;20047;-70
2021/09/21 01:29:12;;;;;;;3.95;1.63;;;10.30;99.90;;;;;;4991857;28;20172;-70
2021/09/21 01:31:39;;;;;;;5.18;1.58;;;10.20;99.90;;;;;;4991567;28;20141;-70
2021/09/21 01:34:06;;;;;;;4.63;2.05;;;10.20;99.90;;;;;;4991053;28;20475;-71
2021/09/21 01:36:32;;;;;;;4.53;1.90;;;10.20;99.90;;;;;;4991172;28;20474;-70
2021/09/21 01:38:58;;;;;;;3.45;1.45;;;10.20;99.90;;;;;;4991051;28;20046;-70
2021/09/21 01:41:24;;;;;;;3.05;1.60;;;10.20;99.90;;;;;;4988047;28;20030;-71
2021/09/21 01:43:50;;;;;;;2.78;1.52;;;10.10;99.90;;;;;;4992983;28;20510;-70
2021/09/21 01:46:21;;;;;;;11.98;1.80;;;10.20;99.90;;;;;;4991928;28;20054;-70
2021/09/21 01:48:48;;;;;;;3.17;1.90;;;10.20;99.90;;;;;;4991005;28;20030;-70
2021/09/21 01:51:16;;;;;;;5.65;1.90;;;10.20;99.90;;;;;;4992098;28;20549;-71
2021/09/21 01:59:04;;;;;;;3.42;1.80;;;10.20;99.90;;;;;;4992541;28;20037;-70
2021/09/21 02:01:30;;;;;;;3.20;1.40;;;10.20;99.90;;;;;;4992698;28;20038;-70
2021/09/21 02:03:58;;;;;;;5.57;1.92;;;10.20;99.90;;;;;;4990972;28;20573;-70
2021/09/21 02:06:41;;;;;;;3.15;1.95;;;10.30;99.90;;;;;;4991997;28;20058;-70
2021/09/21 02:09:10;;;;;;;2.38;1.35;;;10.30;99.90;;;;;;4992787;28;20409;-70
2021/09/21 02:11:37;;;;;;;3.50;1.55;;;10.30;99.90;;;;;;4992518;28;20034;-70
2021/09/21 02:14:04;;;;;;;4.38;1.83;;;10.20;99.90;;;;;;4991684;28;20774;-70
2021/09/21 02:16:31;;;;;;;5.93;1.83;;;10.20;99.90;;;;;;4991176;28;20042;-70
2021/09/21 02:18:57;;;;;;;4.85;1.70;;;10.10;99.90;;;;;;4992849;28;20030;-70
2021/09/21 02:21:23;;;;;;;3.30;1.98;;;10.10;99.90;;;;;;4993221;28;20033;-70
2021/09/21 02:23:53;;;;;;;3.60;1.65;;;10.10;99.90;;;;;;4993551;28;20484;-70
2021/09/21 02:26:19;;;;;;;3.42;1.48;;;10.00;99.90;;;;;;4989454;28;20035;-70
2021/09/21 02:28:45;;;;;;;6.80;1.77;;;10.00;99.90;;;;;;4990059;28;20044;-70
2021/09/21 02:31:10;;;;;;;3.33;1.55;;;10.00;99.90;;;;;;4991441;28;20049;-70
2021/09/21 02:33:36;;;;;;;2.75;1.35;;;10.00;99.90;;;;;;4991299;28;20034;-70
2021/09/21 02:36:05;;;;;;;2.83;1.75;;;9.90;99.90;;;;;;4992291;28;20054;-70
2021/09/21 02:38:34;;;;;;;4.05;2.00;;;9.90;99.90;;;;;;4991726;28;20034;-70
2021/09/21 02:40:59;;;;;;;2.95;1.98;;;9.90;99.90;;;;;;4990782;28;20134;-70
2021/09/21 02:43:25;;;;;;;3.75;2.00;;;9.80;99.90;;;;;;4989970;28;20113;-70
2021/09/21 02:45:51;;;;;;;7.10;1.98;;;9.90;99.90;;;;;;4991278;28;20570;-70
2021/09/21 02:48:17;;;;;;;4.07;1.80;;;9.80;99.90;;;;;;4990162;28;20046;-70
2021/09/21 02:50:43;;;;;;;4.10;2.30;;;9.80;99.90;;;;;;4990242;28;20367;-70
2021/09/21 02:53:09;;;;;;;6.13;2.70;;;9.80;99.90;;;;;;4989957;28;20121;-70
2021/09/21 02:55:35;;;;;;;5.45;2.00;;;9.80;99.90;;;;;;4990721;28;20545;-70
2021/09/21 02:58:01;;;;;;;6.80;2.53;;;9.80;99.90;;;;;;4988888;28;20030;-70
2021/09/21 03:00:27;;;;;;;6.72;2.55;;;9.90;99.90;;;;;;4988903;28;20086;-70
2021/09/21 03:02:56;;;;;;;6.15;3.65;;;9.90;99.90;;;;;;4990980;28;20045;-70
2021/09/21 03:05:29;;;;;;;5.53;3.13;;;9.90;99.90;;;;;;4990807;28;20049;-71
2021/09/21 03:08:08;;;;;;;5.97;2.83;;;9.90;99.90;;;;;;4991102;28;20137;-69
2021/09/21 03:18:45;;;;;;;4.57;2.72;;;9.70;99.90;;;;;;4986383;28;20097;-70
2021/09/21 03:21:11;;;;;;;5.28;2.47;;;9.60;99.90;;;;;;4990937;28;20478;-70
2021/09/21 03:23:36;;;;;;;8.90;3.88;;;9.60;99.90;;;;;;4990712;28;20076;-69
2021/09/21 03:26:02;;;;;;;4.47;2.38;;;9.50;99.90;;;;;;4990468;28;20037;-70
2021/09/21 03:28:27;;;;;;;5.85;2.65;;;9.50;99.90;;;;;;4985115;28;20041;-69
2021/09/21 03:30:53;;;;;;;5.57;2.92;;;9.50;99.90;;;;;;4989258;28;20402;-70
2021/09/21 03:33:19;;;;;;;5.05;2.88;;;9.50;99.90;;;;;;4991133;28;20390;-69
2021/09/21 03:35:44;;;;;;;5.47;2.35;;;9.40;99.90;;;;;;4992289;28;20125;-71
2021/09/21 03:38:10;;;;;;;6.00;2.88;;;9.40;99.90;;;;;;4990193;28;20514;-70
2021/09/21 03:40:36;;;;;;;5.05;2.40;;;9.40;99.90;;;;;;4990035;28;20054;-70
2021/09/21 03:43:01;;;;;;;9.20;2.88;;;9.40;99.90;;;;;;4990154;28;20038;-70
2021/09/21 03:45:27;;;;;;;4.97;2.38;;;9.40;99.90;;;;;;4990414;28;20042;-70
2021/09/21 03:47:55;;;;;;;5.97;2.35;;;9.40;99.90;;;;;;4990051;28;20173;-70
2021/09/21 03:50:21;;;;;;;7.03;2.38;;;9.40;99.90;;;;;;4988143;28;20039;-69
2021/09/21 03:52:47;;;;;;;5.10;2.05;;;9.30;99.90;;;;;;4989138;28;20062;-70
2021/09/21 03:55:14;;;;;;;5.85;2.17;;;9.30;99.90;;;;;;4988510;28;20026;-70
2021/09/21 03:57:40;;;;;;;4.22;2.47;;;9.30;99.90;;;;;;4989592;28;20038;-69
2021/09/21 04:00:06;;;;;;;7.75;2.40;;;9.30;99.90;;;;;;4987878;28;20030;-70
2021/09/21 04:02:32;;;;;;;4.00;2.22;;;9.20;99.90;;;;;;4984814;28;20034;-69
2021/09/21 04:04:57;;;;;;;4.45;2.13;;;9.20;99.90;;;;;;4989383;28;20027;-70
2021/09/21 04:07:23;;;;;;;4.57;2.13;;;9.20;99.90;;;;;;4989563;28;20114;-70
2021/09/21 04:09:48;;;;;;;3.45;1.85;;;9.10;99.90;;;;;;4989165;28;20089;-70
2021/09/21 04:12:14;;;;;;;3.70;2.17;;;9.10;99.90;;;;;;4989868;28;20041;-70
2021/09/21 04:14:39;;;;;;;4.20;2.13;;;9.00;99.90;;;;;;4989873;28;20042;-70
2021/09/21 04:17:05;;;;;;;6.60;2.33;;;9.00;99.90;;;;;;4987978;28;20034;-70
2021/09/21 04:19:31;;;;;;;3.60;1.88;;;9.00;99.90;;;;;;4985927;28;20192;-70
2021/09/21 04:21:56;;;;;;;4.78;2.17;;;9.00;99.90;;;;;;4988858;28;20122;-70
2021/09/21 04:24:22;;;;;;;3.38;2.13;;;9.00;99.90;;;;;;4989907;28;20490;-70
2021/09/21 04:26:48;;;;;;;6.75;2.17;;;9.00;99.90;;;;;;4985512;28;20031;-70
2021/09/21 04:29:13;;;;;;;5.32;2.42;;;9.00;99.90;;;;;;4989324;28;20032;-70
2021/09/21 04:31:42;;;;;;;4.65;2.10;;;9.00;99.90;;;;;;4991723;28;20038;-70
2021/09/21 04:34:11;;;;;;;3.35;1.98;;;9.00;99.90;;;;;;4990804;28;20049;-70
2021/09/21 04:36:37;;;;;;;4.95;2.22;;;8.90;99.90;;;;;;4996070;28;20034;-70
2021/09/21 04:39:03;;;;;;;4.18;2.08;;;8.90;99.90;;;;;;4991920;28;20383;-70
2021/09/21 04:41:31;;;;;;;4.65;2.22;;;8.90;99.90;;;;;;4995241;28;20046;-70
2021/09/21 04:43:59;;;;;;;4.65;2.58;;;8.90;99.90;;;;;;4995214;28;20040;-70
2021/09/21 04:46:25;;;;;;;6.25;1.80;;;8.90;99.90;;;;;;4998289;28;20567;-70
2021/09/21 04:48:51;;;;;;;3.63;1.95;;;8.80;99.90;;;;;;4995598;28;20414;-69
2021/09/21 04:51:16;;;;;;;3.22;1.83;;;8.80;99.90;;;;;;4992765;28;20042;-69
2021/09/21 04:53:42;;;;;;;4.72;2.00;;;8.80;99.90;;;;;;4986981;28;20099;-70
2021/09/21 04:56:08;;;;;;;3.17;1.77;;;8.70;99.90;;;;;;4980412;28;20043;-70
2021/09/21 04:58:36;;;;;;;3.63;1.83;;;8.70;99.90;;;;;;4981805;28;20048;-70
2021/09/21 05:01:02;;;;;;;3.33;1.67;;;8.70;99.90;;;;;;4985676;28;20069;-70
2021/09/21 05:03:28;;;;;;;5.55;2.28;;;8.70;99.90;;;;;;4990690;28;20064;-70
2021/09/21 05:05:54;;;;;;;4.57;2.28;;;8.70;99.90;;;;;;4992016;28;20038;-70
2021/09/21 05:08:20;;;;;;;5.85;2.08;;;8.70;99.90;;;;;;4990025;28;20026;-70
2021/09/21 05:10:45;;;;;;;5.20;2.45;;;8.70;99.90;;;;;;4994013;28;20050;-70
2021/09/21 05:13:13;;;;;;;4.30;2.00;;;8.60;99.90;;;;;;4994251;28;20038;-70
2021/09/21 05:15:39;;;;;;;8.05;2.95;;;8.70;99.90;;;;;;4990750;28;20073;-70
2021/09/21 05:18:04;;;;;;;2.60;1.55;;;8.60;99.90;;;;;;4992999;28;20514;-71
2021/09/21 05:20:30;;;;;;;4.00;2.15;;;8.60;99.90;;;;;;4996695;28;20080;-70
2021/09/21 05:22:55;;;;;;;6.47;2.28;;;8.60;99.90;;;;;;4995016;28;20031;-71
2021/09/21 05:25:21;;;;;;;8.00;2.72;;;8.60;99.90;;;;;;4992774;28;20049;-70
2021/09/21 05:27:47;;;;;;;6.93;2.28;;;8.60;99.90;;;;;;4989659;28;20034;-70
2021/09/21 05:30:13;;;;;;;8.38;2.42;;;8.60;99.90;;;;;;4988161;28;20034;-71
2021/09/21 05:32:39;;;;;;;6.38;2.75;;;8.60;99.90;;;;;;4990704;28;20057;-70
2021/09/21 05:35:06;;;;;;;10.70;3.15;;;8.60;99.90;;;;;;4990752;28;20128;-71
2021/09/21 05:37:31;;;;;;;9.57;3.38;;;8.60;99.90;;;;;;4987962;28;20085;-70
2021/09/21 05:39:58;;;;;;;8.65;3.35;;;8.70;99.90;;;;;;4985279;28;20560;-70
2021/09/21 05:42:24;;;;;;;14.85;3.05;;;8.70;99.90;;;;;;4987863;28;21181;-70
2021/09/21 05:44:50;;;;;;;10.82;2.85;;;8.70;99.90;;;;;;4989874;28;20117;-70
2021/09/21 05:47:15;;;;;;;8.82;3.22;;;8.70;99.90;;;;;;4985674;28;20121;-70
2021/09/21 05:49:41;;;;;;;6.25;2.58;;;8.70;99.90;;;;;;4992012;28;20038;-70
2021/09/21 05:52:07;;;;;;;6.72;2.67;;;8.70;99.90;;;;;;4987050;28;20030;-71
2021/09/21 05:54:35;;;;;;;4.30;2.33;;;8.80;99.90;;;;;;4987200;28;20173;-70
2021/09/21 05:57:00;;;;;;;8.90;3.17;;;8.80;99.90;;;;;;4985914;28;20031;-70
2021/09/21 05:59:26;;;;;;;7.70;2.53;;;8.80;99.90;;;;;;4988210;28;20049;-71
2021/09/21 06:01:52;;;;;;;6.30;2.70;;;8.80;99.90;;;;;;4986557;28;20038;-70
2021/09/21 06:04:17;;;;;;;7.95;2.95;;;8.90;99.90;;;;;;4986976;28;20490;-70
2021/09/21 06:06:43;;;;;;;6.10;2.20;;;9.00;99.90;;;;;;4989411;28;20045;-70
2021/09/21 06:09:09;;;;;;;6.18;2.58;;;9.00;99.90;;;;;;4985839;28;20387;-72
2021/09/21 06:11:34;;;;;;;7.43;3.22;;;9.10;99.90;;;;;;4988458;28;20034;-71
2021/09/21 06:14:02;;;;;;;9.18;3.08;;;9.20;99.90;;;;;;4991007;28;20035;-70
2021/09/21 06:16:28;;;;;;;6.15;3.25;;;9.20;99.90;;;;;;4991352;28;20034;-70
2021/09/21 06:18:54;;;;;;;6.20;2.47;;;9.40;99.90;;;;;;4986779;28;20704;-70
2021/09/21 06:21:20;;;;;;;9.02;3.22;;;9.40;99.90;;;;;;4985777;28;20053;-71
2021/09/21 06:23:46;;;;;;;6.97;3.40;;;9.50;99.90;;;;;;4989711;28;20042;-70
2021/09/21 06:26:11;;;;;;;7.65;2.95;;;9.60;99.90;;;;;;4983246;28;20125;-71
2021/09/21 06:28:37;;;;;;;5.57;2.75;;;9.60;99.90;;;;;;4986513;28;20089;-71
2021/09/21 06:31:03;;;;;;;4.68;2.58;;;9.80;99.90;;;;;;4987317;28;20058;-71
2021/09/21 06:33:31;;;;;;;6.07;2.50;;;9.90;99.90;;;;;;4986861;28;20039;-71
2021/09/21 06:35:57;;;;;;;6.82;3.15;;;9.90;99.90;;;;;;4986215;28;20034;-71
2021/09/21 06:38:23;;;;;;;3.70;2.03;;;10.00;99.90;;;;;;4984082;28;20719;-71
2021/09/21 06:40:48;;;;;;;6.18;2.45;;;10.10;99.90;;;;;;4984286;28;20100;-71
2021/09/21 06:43:14;;;;;;;9.00;2.75;;;10.20;99.90;;;;;;4988446;28;20046;-73
2021/09/21 06:45:40;;;;;;;5.65;2.30;;;10.30;99.90;;;;;;4986991;28;20129;-72
2021/09/21 06:48:07;;;;;;;4.38;2.33;;;10.40;99.90;;;;;;4987083;28;20066;-71
2021/09/21 06:50:32;;;;;;;3.95;2.25;;;10.50;99.90;;;;;;4984538;28;20038;-71
2021/09/21 06:53:00;;;;;;;4.88;2.50;;;10.60;99.90;;;;;;4985792;28;20093;-70
2021/09/21 06:55:26;;;;;;;5.97;2.58;;;10.70;99.90;;;;;;4988773;28;20085;-71
2021/09/21 06:57:53;;;;;;;6.70;2.30;;;10.80;99.90;;;;;;4986702;28;20026;-71
2021/09/21 07:00:20;;;;;;;5.10;2.08;;;10.90;99.90;;;;;;4987924;28;20030;-71
2021/09/21 07:02:50;;;;;;;6.20;2.45;;;11.00;99.90;;;;;;4992870;28;20030;-72
2021/09/21 07:05:16;;;;;;;5.32;2.40;;;11.20;99.90;;;;;;4996736;28;20039;-71
2021/09/21 07:07:44;;;;;;;6.32;2.10;;;11.30;99.90;;;;;;4987542;28;20414;-71
2021/09/21 07:10:09;;;;;;;8.55;2.72;;;11.50;99.90;;;;;;4994221;28;20148;-71
2021/09/21 07:12:35;;;;;;;9.40;2.50;;;11.60;99.90;;;;;;4994073;28;20492;-71
2021/09/21 07:15:00;;;;;;;8.15;2.60;;;11.70;99.90;;;;;;4988775;28;20038;-71
2021/09/21 07:17:26;;;;;;;5.78;2.28;;;11.90;99.90;;;;;;4994975;28;20129;-71
2021/09/21 07:19:52;;;;;;;4.65;2.17;;;12.00;99.90;;;;;;4989024;28;20426;-71
2021/09/21 07:22:17;;;;;;;6.18;2.17;;;12.20;99.90;;;;;;4992508;28;20038;-71
2021/09/21 07:24:43;;;;;;;4.15;2.13;;;12.30;99.90;;;;;;4990286;28;20462;-71
2021/09/21 07:27:08;;;;;;;5.63;3.17;;;12.40;99.90;;;;;;4993649;28;20030;-71
2021/09/21 07:29:34;;;;;;;12.73;3.05;;;12.50;99.90;;;;;;4989906;28;20042;-71
2021/09/21 07:32:00;;;;;;;7.13;2.55;;;12.70;99.90;;;;;;4990213;28;20045;-71
2021/09/21 07:34:25;;;;;;;4.50;2.20;;;12.80;99.90;;;;;;4990651;28;20061;-71
2021/09/21 07:36:52;;;;;;;5.63;2.20;;;12.90;99.90;;;;;;4988793;28;20383;-71
2021/09/21 07:39:19;;;;;;;4.72;2.10;;;12.90;99.90;;;;;;4992527;28;20038;-71
2021/09/21 07:41:45;;;;;;;7.30;2.05;;;12.90;99.90;;;;;;4987609;28;20507;-71
2021/09/21 07:44:10;;;;;;;3.53;1.83;;;13.00;99.90;;;;;;4988350;28;20068;-71
2021/09/21 07:46:36;;;;;;;6.97;2.30;;;13.00;99.90;;;;;;4989693;28;20036;-71
2021/09/21 07:49:02;;;;;;;5.97;2.10;;;13.00;99.90;;;;;;4989039;28;20034;-71
2021/09/21 07:51:28;;;;;;;4.05;2.17;;;13.10;99.90;;;;;;4993281;28;20412;-71
2021/09/21 07:53:53;;;;;;;7.15;2.20;;;13.10;99.90;;;;;;4987501;28;20050;-71
2021/09/21 07:56:19;;;;;;;8.38;1.95;;;13.20;99.90;;;;;;4988961;28;20027;-71
2021/09/21 07:58:44;;;;;;;4.88;2.20;;;13.30;99.90;;;;;;4990863;28;20042;-72
2021/09/21 08:01:10;;;;;;;6.70;2.22;;;13.40;99.90;;;;;;4984848;28;20030;-71
2021/09/21 08:03:36;;;;;;;8.30;2.15;;;13.60;99.90;;;;;;4984487;28;20034;-71
2021/09/21 08:06:01;;;;;;;6.82;1.98;;;13.70;99.90;;;;;;4985646;28;20474;-71
2021/09/21 08:08:27;;;;;;;4.47;2.30;;;13.80;99.90;;;;;;4987340;28;20562;-70
2021/09/21 08:10:52;;;;;;;4.60;1.88;;;14.00;99.90;;;;;;4985284;28;20134;-71
2021/09/21 08:13:18;;;;;;;4.22;2.15;;;14.00;99.90;;;;;;4988520;28;20050;-70
2021/09/21 08:15:44;;;;;;;6.07;2.05;;;14.10;99.90;;;;;;4986348;28;20035;-71
2021/09/21 08:18:10;;;;;;;5.95;2.08;;;14.20;99.90;;;;;;4990284;28;20030;-71
2021/09/21 08:20:36;;;;;;;2.47;1.45;;;14.30;99.90;;;;;;4988316;28;20042;-71
2021/09/21 08:23:02;;;;;;;4.18;1.80;;;14.50;99.90;;;;;;4990852;28;20573;-71
2021/09/21 08:25:28;;;;;;;2.53;1.38;;;14.60;99.90;;;;;;4985684;28;20041;-70
2021/09/21 08:27:54;;;;;;;2.90;1.73;;;14.70;99.90;;;;;;4984514;28;20415;-71
2021/09/21 08:30:19;;;;;;;2.67;1.67;;;14.80;99.90;;;;;;4986302;28;20132;-71
2021/09/21 08:32:46;;;;;;;6.07;1.60;;;15.00;99.90;;;;;;4993095;28;20030;-71
2021/09/21 08:35:12;;;;;;;6.15;1.60;;;15.10;99.90;;;;;;4994364;28;20359;-71
2021/09/21 08:37:37;;;;;;;2.20;1.20;;;15.20;99.90;;;;;;4991408;28;20030;-70
2021/09/21 08:40:04;;;;;;;2.38;1.23;;;15.30;99.90;;;;;;4990427;28;20459;-70
2021/09/21 08:42:30;;;;;;;5.93;1.60;;;15.40;99.90;;;;;;4998799;28;20045;-70
2021/09/21 08:44:56;;;;;;;4.53;1.60;;;15.40;99.90;;;;;;4994806;28;20030;-71
2021/09/21 08:47:22;;;;;;;4.65;1.55;;;15.60;99.90;;;;;;4991098;28;20046;-71
2021/09/21 08:49:47;;;;;;;4.40;1.50;;;15.70;99.90;;;;;;4993788;28;20433;-70
2021/09/21 08:52:13;;;;;;;4.05;1.27;;;15.80;99.90;;;;;;4991943;28;21049;-71
2021/09/21 08:54:39;;;;;;;2.25;1.20;;;15.80;99.90;;;;;;4993951;28;20112;-71
2021/09/21 08:57:05;;;;;;;2.30;1.20;;;15.80;99.90;;;;;;4993295;28;20042;-71
2021/09/21 08:59:36;;;;;;;2.72;1.13;;;15.90;99.90;;;;;;4992060;28;20042;-71
2021/09/21 09:02:07;;;;;;;5.40;2.10;;;16.00;99.90;;;;;;4987896;28;20498;-71
2021/09/21 09:04:33;;;;;;;3.55;1.63;;;16.10;99.90;;;;;;4992021;28;20161;-71
2021/09/21 09:06:59;;;;;;;2.90;1.42;;;16.20;99.90;;;;;;4987143;28;20031;-71
2021/09/21 09:09:27;;;;;;;2.80;1.55;;;16.30;99.90;;;;;;4986328;28;20049;-70
2021/09/21 09:11:59;;;;;;;3.03;1.45;;;16.40;99.90;;;;;;4986907;28;20096;-70
2021/09/21 09:14:31;;;;;;;3.97;1.33;;;16.50;99.90;;;;;;4987401;28;20053;-71
2021/09/21 09:16:59;;;;;;;2.13;1.10;;;16.50;99.90;;;;;;4987356;28;20035;-71
2021/09/21 09:19:35;;;;;;;5.57;1.40;;;16.50;99.90;;;;;;4989822;28;20034;-71
2021/09/21 09:22:27;;;;;;;4.25;1.27;;;16.60;99.90;;;;;;4984745;28;20034;-71
2021/09/21 09:24:57;;;;;;;1.95;0.90;;;16.70;99.90;;;;;;4988646;28;20045;-71
2021/09/21 09:27:38;;;;;;;3.20;1.15;;;16.70;99.50;;;;;;4988793;28;20499;-71
2021/09/21 09:30:07;;;;;;;5.18;1.30;;;16.90;99.70;;;;;;4990548;28;20418;-71
2021/09/21 09:33:03;;;;;;;2.40;1.40;;;16.90;99.90;;;;;;4988675;28;20034;-71
2021/09/21 09:35:34;;;;;;;3.20;1.20;;;17.00;99.90;;;;;;4971364;28;20039;-70
2021/09/21 09:38:05;;;;;;;2.60;1.20;;;17.10;99.90;;;;;;4988648;28;20050;-70
2021/09/21 09:40:31;;;;;;;2.15;1.15;;;17.10;99.90;;;;;;4986377;28;20768;-71
2021/09/21 09:42:57;;;;;;;4.47;1.45;;;17.10;99.90;;;;;;4987026;28;20034;-70
2021/09/21 09:45:32;;;;;;;2.10;1.13;;;17.20;99.90;;;;;;4987043;28;20108;-71
2021/09/21 09:47:58;;;;;;;2.50;1.10;;;17.30;99.90;;;;;;4985624;28;20047;-71
2021/09/21 09:50:35;;;;;;;4.03;0.95;;;17.40;99.90;;;;;;4977861;28;20050;-71
2021/09/21 09:53:16;;;;;;;2.20;1.00;;;17.40;99.80;;;;;;4982055;28;20042;-71
2021/09/21 09:55:45;;;;;;;3.22;0.95;;;17.40;97.80;;;;;;4982311;28;20121;-71
2021/09/21 09:58:11;;;;;;;4.85;0.98;;;17.50;99.20;;;;;;4982281;28;20468;-71
2021/09/21 10:00:37;;;;;;;4.53;1.17;;;17.60;99.90;;;;;;4986714;28;20077;-71
2021/09/21 10:03:04;;;;;;;2.60;1.35;;;17.70;99.90;;;;;;4981837;28;20466;-72
2021/09/21 10:05:32;;;;;;;3.53;1.83;;;17.70;99.10;;;;;;4981758;28;20873;-71
2021/09/21 10:07:58;;;;;;;2.15;0.80;;;17.70;98.80;;;;;;4985228;28;20038;-71
2021/09/21 10:10:28;;;;;;;2.05;0.90;;;17.70;98.30;;;;;;4984811;28;20492;-71
2021/09/21 10:12:55;;;;;;;4.30;1.10;;;17.70;99.60;;;;;;4984816;28;20089;-71
2021/09/21 10:15:23;;;;;;;3.53;1.25;;;17.70;99.80;;;;;;4984316;28;20576;-72
2021/09/21 10:17:54;;;;;;;2.80;1.42;;;17.70;99.80;;;;;;4984657;28;20050;-71
2021/09/21 10:20:22;;;;;;;2.90;1.38;;;17.70;99.90;;;;;;4983796;28;20125;-72
2021/09/21 10:22:53;;;;;;;3.05;1.13;;;17.80;98.10;;;;;;4983312;28;20037;-71
2021/09/21 10:25:29;;;;;;;2.30;0.90;;;17.90;97.80;;;;;;4983189;28;20520;-71
2021/09/21 10:27:56;;;;;;;3.05;1.65;;;18.00;96.00;;;;;;4984899;28;20030;-71
2021/09/21 10:30:24;;;;;;;2.83;0.88;;;18.10;96.80;;;;;;4985059;28;20045;-71
2021/09/21 10:32:51;;;;;;;1.65;1.05;;;18.10;97.30;;;;;;4984106;28;20026;-71
2021/09/21 10:35:22;;;;;;;3.10;0.93;;;18.10;96.60;;;;;;4984891;28;20057;-72
2021/09/21 10:38:03;;;;;;;2.00;0.90;;;18.10;96.50;;;;;;4985582;28;20088;-72
2021/09/21 10:40:47;;;;;;;1.48;0.77;;;18.20;95.50;;;;;;4982465;28;20061;-71
2021/09/21 10:43:27;;;;;;;3.55;0.75;;;18.30;96.10;;;;;;4983818;28;20498;-71
2021/09/21 10:46:15;;;;;;;1.08;0.30;;;18.30;94.60;;;;;;4982524;28;20397;-72
2021/09/21 10:48:44;;;;;;;1.73;0.50;;;18.40;94.40;;;;;;5024719;22;20053;-60
2021/09/21 10:51:10;;;;;;;1.80;0.50;;;18.50;94.00;;;;;;5020940;28;20522;-61
2021/09/21 10:53:37;;;;;;;1.38;0.47;;;18.50;94.30;;;;;;5031627;28;20049;-61
2021/09/21 10:56:08;;;;;;;1.10;0.57;;;18.50;94.60;;;;;;5024038;28;20080;-61
2021/09/21 10:58:36;;;;;;;2.20;0.80;;;18.50;93.70;;;;;;5029499;28;20069;-61
2021/09/21 11:01:03;;;;;;;1.42;0.40;;;18.60;93.20;;;;;;5030750;28;20048;-61
2021/09/21 11:03:31;;;;;;;0.38;0.30;;;18.70;93.50;;;;;;5027834;28;20034;-61
2021/09/21 11:05:58;;;;;;;3.60;1.08;;;18.70;93.00;;;;;;5027134;28;20071;-61
2021/09/21 11:08:34;;;;;;;3.30;0.80;;;18.90;92.40;;;;;;5030828;28;20037;-61
2021/09/21 11:11:04;;;;;;;2.08;0.50;;;18.90;92.20;;;;;;5032014;28;20043;-61
2021/09/21 11:13:35;;;;;;;1.23;0.70;;;18.90;92.10;;;;;;5030588;28;20045;-61
2021/09/21 11:16:03;;;;;;;1.10;0.40;;;18.90;93.80;;;;;;5027090;28;20477;-61
2021/09/21 11:18:29;;;;;;;0.73;0.50;;;18.90;93.00;;;;;;5029568;28;20345;-62
2021/09/21 11:20:58;;;;;;;1.92;0.50;;;18.90;91.90;;;;;;5030101;28;20037;-61
2021/09/21 11:23:28;;;;;;;0.85;0.30;;;18.90;92.40;;;;;;5027603;28;20041;-62
2021/09/21 11:25:57;;;;;;;0.55;0.30;;;18.90;91.60;;;;;;5028426;28;20113;-62
2021/09/21 11:28:23;;;;;;;0.40;0.30;;;18.90;91.60;;;;;;5032595;28;20045;-61
2021/09/21 11:30:49;;;;;;;0.90;0.30;;;18.90;91.60;;;;;;5029699;28;20629;-61
2021/09/21 11:33:23;;;;;;;0.88;0.40;;;18.90;90.70;;;;;;5033389;28;20036;-61
2021/09/21 11:35:55;;;;;;;1.75;0.47;;;19.00;91.10;;;;;;5029237;28;20064;-61
2021/09/21 11:38:21;;;;;;;1.75;0.60;;;18.90;90.90;;;;;;5036760;28;20033;-61
2021/09/21 11:40:50;;;;;;;1.17;0.35;;;18.90;91.30;;;;;;5028190;28;20033;-62
2021/09/21 11:43:16;;;;;;;0.50;0.30;;;18.90;91.60;;;;;;5030879;28;20092;-62
2021/09/21 11:45:44;;;;;;;0.98;0.50;;;18.80;92.00;;;;;;5030667;28;20029;-61
2021/09/21 11:48:12;;;;;;;0.50;0.20;;;18.70;91.50;;;;;;5029508;28;20065;-62
2021/09/21 11:50:38;;;;;;;0.77;0.32;;;18.70;91.00;;;;;;5026945;28;20511;-62
2021/09/21 11:53:07;;;;;;;1.27;0.60;;;18.70;90.50;;;;;;5033784;28;20097;-61
2021/09/21 11:55:34;;;;;;;3.15;0.80;;;18.60;90.90;;;;;;5032934;28;20037;-60
2021/09/21 11:58:02;;;;;;;3.63;0.40;;;18.60;88.80;;;;;;5030140;28;20029;-61
2021/09/21 12:00:33;;;;;;;1.50;0.35;;;18.50;90.60;;;;;;5034887;28;20034;-66
2021/09/21 12:03:04;;;;;;;0.45;0.20;;;18.60;90.60;;;;;;5036439;28;20195;-62
2021/09/21 12:05:31;;;;;;;2.22;0.40;;;18.50;90.60;;;;;;5035797;28;20555;-62
2021/09/21 12:08:04;;;;;;;0.73;0.45;;;18.50;91.00;;;;;;5041212;28;20037;-62
2021/09/21 12:10:30;;;;;;;0.90;0.30;;;18.60;89.50;;;;;;5038788;28;20032;-62
2021/09/21 12:12:59;;;;;;;0.93;0.50;;;18.50;89.40;;;;;;5038002;28;20038;-61
2021/09/21 12:15:25;;;;;;;1.27;0.52;;;18.60;90.60;;;;;;5032872;28;20041;-61
2021/09/21 12:17:53;;;;;;;0.93;0.30;;;18.60;90.50;;;;;;5031678;28;20040;-60
2021/09/21 12:20:23;;;;;;;0.52;0.28;;;18.60;90.60;;;;;;5039190;28;20555;-61
2021/09/21 12:22:50;;;;;;;2.75;0.50;;;18.60;90.90;;;;;;5035708;28;20057;-61
2021/09/21 12:25:16;;;;;;;1.08;0.65;;;18.80;91.10;;;;;;5036051;28;20089;-61
2021/09/21 12:27:42;;;;;;;2.38;0.98;;;18.80;90.40;;;;;;5034559;28;20455;-61
2021/09/21 12:30:09;;;;;;;0.77;0.30;;;18.80;91.50;;;;;;5038513;28;20129;-61
2021/09/21 12:32:37;;;;;;;1.75;0.32;;;18.90;90.90;;;;;;5035602;28;20049;-61
2021/09/21 12:35:04;;;;;;;0.40;0.25;;;19.00;89.10;;;;;;5032213;28;20491;-60
2021/09/21 12:37:43;;;;;;;0.88;0.30;;;19.00;88.40;;;;;;5034634;28;20568;-61
2021/09/21 12:40:14;;;;;;;0.98;0.20;;;19.00;90.40;;;;;;5030781;28;20107;-61
2021/09/21 12:42:41;;;;;;;1.05;0.20;;;19.00;90.50;;;;;;5029942;28;20087;-61
2021/09/21 12:45:08;;;;;;;2.50;0.60;;;19.10;90.60;;;;;;5034860;28;20373;-60
2021/09/21 12:47:39;;;;;;;2.20;0.63;;;19.10;90.60;;;;;;5031306;28;20528;-61
2021/09/21 12:50:20;;;;;;;1.80;0.45;;;19.10;89.70;;;;;;5031381;28;20103;-61
2021/09/21 12:52:50;;;;;;;0.25;0.17;;;19.10;90.20;;;;;;5035655;28;20028;-61
2021/09/21 12:55:48;;;;;;;1.90;0.50;;;19.10;89.50;;;;;;5027194;28;20075;-60
2021/09/21 12:58:13;;;;;;;1.35;0.40;;;19.00;88.70;;;;;;5023198;28;20036;-61
2021/09/21 13:00:41;;;;;;;3.03;0.50;;;19.00;90.60;;;;;;5031952;28;20397;-60
2021/09/21 13:03:07;;;;;;;0.50;0.15;;;19.10;90.50;;;;;;5034706;28;20060;-61
2021/09/21 13:05:35;;;;;;;0.17;0.10;;;19.20;89.90;;;;;;5036716;28;20366;-61